Time;durP1;ratioP1;P1;durP2;ratioP2;P2;SDS_P1;SDS_P2;PMS_P1;PMS_P2;Temp;Humidity;BMP_temperature;BMP_pressure;BME280_temperature;BME280_humidity;BME280_pressure;Samples;Min_cycle;Max_cycle;Signal;HPM_P1;HPM_P2
2024/03/02 00:00:27;;;;;;;0.90;0.20;;;7.90;99.90;;;;;;4989574;28;20037;-92
2024/03/02 00:02:52;;;;;;;0.65;0.20;;;7.90;99.90;;;;;;5007247;28;20030;-91
2024/03/02 00:05:20;;;;;;;1.25;0.25;;;7.80;99.90;;;;;;5004546;28;20105;-92
2024/03/02 00:07:57;;;;;;;0.90;0.30;;;7.90;99.90;;;;;;5002724;28;20113;-91
2024/03/02 00:10:29;;;;;;;0.80;0.20;;;8.00;99.90;;;;;;4989501;28;20026;-91
2024/03/02 00:12:55;;;;;;;1.25;0.30;;;8.00;99.90;;;;;;4989268;28;20394;-91
2024/03/02 00:15:36;;;;;;;2.30;0.25;;;8.00;99.90;;;;;;4994277;28;20026;-92
2024/03/02 00:18:02;;;;;;;1.40;0.30;;;7.90;99.90;;;;;;4993580;28;20569;-92
2024/03/02 00:20:29;;;;;;;0.90;0.22;;;7.90;99.90;;;;;;4986780;28;20032;-91
2024/03/02 00:23:06;;;;;;;0.85;0.20;;;7.90;99.90;;;;;;4974898;28;20026;-91
2024/03/02 00:25:40;;;;;;;0.90;0.22;;;7.80;99.90;;;;;;4992415;28;20034;-91
2024/03/02 00:28:16;;;;;;;1.02;0.20;;;7.90;99.90;;;;;;4994491;28;20034;-93
2024/03/02 00:30:57;;;;;;;0.60;0.20;;;7.80;99.90;;;;;;4991119;28;20080;-92
2024/03/02 00:33:25;;;;;;;1.20;0.20;;;7.80;99.90;;;;;;4989325;28;20040;-93
2024/03/02 00:35:52;;;;;;;0.80;0.22;;;7.90;99.90;;;;;;5009652;28;20033;-93
2024/03/02 00:38:17;;;;;;;1.02;0.30;;;7.80;99.90;;;;;;4995112;28;20042;-90
2024/03/02 00:40:44;;;;;;;0.55;0.10;;;7.90;99.90;;;;;;4993272;28;20026;-90
2024/03/02 00:43:47;;;;;;;0.90;0.28;;;7.90;99.90;;;;;;4979644;28;20022;-89
2024/03/02 00:46:23;;;;;;;1.08;0.25;;;8.00;99.90;;;;;;5007348;28;20018;-91
2024/03/02 00:48:57;;;;;;;0.88;0.20;;;7.90;99.90;;;;;;5009679;28;20022;-92
2024/03/02 00:51:25;;;;;;;1.08;0.20;;;8.00;99.90;;;;;;4985767;28;20498;-92
2024/03/02 00:53:55;;;;;;;0.75;0.20;;;8.00;99.90;;;;;;4973572;28;20037;-94
2024/03/02 00:56:20;;;;;;;0.90;0.22;;;8.00;99.90;;;;;;4988901;28;20037;-94
2024/03/02 00:58:46;;;;;;;0.60;0.10;;;8.00;99.90;;;;;;4989869;28;20517;-92
2024/03/02 01:01:12;;;;;;;0.65;0.20;;;8.10;99.90;;;;;;4977761;28;20029;-92
2024/03/02 01:03:38;;;;;;;1.38;0.20;;;8.10;99.90;;;;;;5008228;28;20125;-90
2024/03/02 01:06:04;;;;;;;2.78;0.28;;;8.10;99.90;;;;;;5011845;28;20036;-92
2024/03/02 01:08:30;;;;;;;0.93;0.20;;;8.20;99.90;;;;;;4992185;28;20519;-91
2024/03/02 01:10:56;;;;;;;0.57;0.20;;;8.10;99.90;;;;;;4973642;28;20112;-93
2024/03/02 01:13:23;;;;;;;0.85;0.20;;;8.10;99.90;;;;;;4990799;28;20437;-93
2024/03/02 01:15:49;;;;;;;0.75;0.20;;;8.10;99.90;;;;;;4993563;28;20078;-92
2024/03/02 01:18:15;;;;;;;0.95;0.17;;;8.20;99.90;;;;;;4981725;28;20041;-92
2024/03/02 01:20:40;;;;;;;3.35;0.20;;;8.20;99.90;;;;;;4980977;28;20532;-92
2024/03/02 01:23:06;;;;;;;1.95;0.20;;;8.20;99.90;;;;;;4975002;28;20055;-89
2024/03/02 01:25:32;;;;;;;1.38;0.20;;;8.20;99.90;;;;;;5007817;28;20026;-91
2024/03/02 01:27:57;;;;;;;2.05;0.20;;;8.10;99.90;;;;;;4992908;28;20053;-91
2024/03/02 01:30:23;;;;;;;0.77;0.20;;;8.10;99.90;;;;;;4991675;28;20113;-93
2024/03/02 01:32:49;;;;;;;0.73;0.17;;;8.10;99.90;;;;;;4993845;28;20073;-91
2024/03/02 01:35:15;;;;;;;0.98;0.20;;;8.10;99.90;;;;;;4990681;28;20030;-92
2024/03/02 01:37:41;;;;;;;3.47;0.20;;;8.20;99.90;;;;;;4993118;28;20073;-89
2024/03/02 01:40:09;;;;;;;0.80;0.20;;;8.20;99.90;;;;;;4981515;28;20049;-90
2024/03/02 01:42:40;;;;;;;0.60;0.20;;;8.20;99.90;;;;;;4988124;28;20030;-88
2024/03/02 01:45:08;;;;;;;1.00;0.20;;;8.10;99.90;;;;;;4980621;28;20033;-90
2024/03/02 01:47:33;;;;;;;1.05;0.10;;;8.10;99.90;;;;;;4988810;28;20022;-90
2024/03/02 01:49:59;;;;;;;0.52;0.10;;;8.10;99.90;;;;;;4989940;28;20568;-89
2024/03/02 01:52:25;;;;;;;0.88;0.10;;;8.20;99.90;;;;;;4974435;28;20030;-89
2024/03/02 01:54:51;;;;;;;1.20;0.17;;;8.30;99.90;;;;;;4993612;28;20095;-89
2024/03/02 01:57:17;;;;;;;0.75;0.10;;;8.30;99.90;;;;;;4987468;28;20105;-89
2024/03/02 01:59:44;;;;;;;0.68;0.10;;;8.30;99.90;;;;;;4974793;28;20053;-90
2024/03/02 02:02:10;;;;;;;0.93;0.20;;;8.30;99.90;;;;;;4975275;28;20050;-89
2024/03/02 02:04:35;;;;;;;0.75;0.10;;;8.30;99.90;;;;;;4989022;28;20044;-90
2024/03/02 02:07:01;;;;;;;0.30;0.10;;;8.30;99.90;;;;;;4990700;28;20038;-89
2024/03/02 02:09:27;;;;;;;0.47;0.10;;;8.20;99.90;;;;;;5002956;28;20375;-87
2024/03/02 02:11:52;;;;;;;0.60;0.10;;;8.20;99.90;;;;;;5006914;28;20038;-90
2024/03/02 02:14:18;;;;;;;0.28;0.10;;;8.20;99.90;;;;;;4973363;28;20292;-90
2024/03/02 02:16:44;;;;;;;0.60;0.10;;;8.10;99.90;;;;;;4969200;28;20115;-90
2024/03/02 02:19:10;;;;;;;0.73;0.35;;;8.10;99.90;;;;;;5007604;28;20101;-89
2024/03/02 02:21:36;;;;;;;0.20;0.03;;;8.10;99.90;;;;;;4991467;28;20038;-90
2024/03/02 02:24:03;;;;;;;0.10;0.03;;;8.10;99.90;;;;;;5007550;28;20034;-90
2024/03/02 02:26:29;;;;;;;0.80;0.10;;;8.10;99.90;;;;;;4989099;28;20037;-90
2024/03/02 02:28:55;;;;;;;0.20;0.00;;;8.10;99.90;;;;;;4988217;28;20030;-89
2024/03/02 02:31:21;;;;;;;0.10;0.00;;;8.10;99.90;;;;;;4977914;28;20076;-89
2024/03/02 02:33:46;;;;;;;0.28;0.10;;;8.10;99.90;;;;;;4973787;28;20038;-90
2024/03/02 02:36:12;;;;;;;0.40;0.00;;;8.10;99.90;;;;;;4986874;28;20029;-89
2024/03/02 02:38:42;;;;;;;0.40;0.00;;;8.10;99.90;;;;;;4988311;28;20046;-93
2024/03/02 02:41:08;;;;;;;0.13;0.00;;;8.10;99.90;;;;;;4991702;28;20472;-89
2024/03/02 02:43:34;;;;;;;0.15;0.00;;;8.10;99.90;;;;;;4970166;28;20069;-90
2024/03/02 02:45:59;;;;;;;0.20;0.00;;;8.10;99.90;;;;;;4975524;28;20029;-89
2024/03/02 02:48:25;;;;;;;0.38;0.00;;;8.10;99.90;;;;;;4989398;28;20041;-90
2024/03/02 02:50:51;;;;;;;0.10;0.00;;;8.10;99.90;;;;;;5005593;28;20156;-90
2024/03/02 02:53:16;;;;;;;0.75;0.00;;;8.10;99.90;;;;;;4988029;28;20045;-91
2024/03/02 02:55:43;;;;;;;0.20;0.00;;;8.10;99.90;;;;;;5008338;28;20018;-92
2024/03/02 02:58:09;;;;;;;0.10;0.00;;;8.10;99.90;;;;;;4978570;28;20124;-90
2024/03/02 03:00:36;;;;;;;0.50;0.00;;;8.10;99.90;;;;;;4979520;28;20129;-89
2024/03/02 03:03:02;;;;;;;0.10;0.00;;;8.10;99.90;;;;;;5007498;28;20061;-90
2024/03/02 03:05:28;;;;;;;0.10;0.00;;;8.10;99.90;;;;;;4982707;28;20228;-89
2024/03/02 03:07:53;;;;;;;0.00;0.00;;;8.10;99.90;;;;;;4989538;28;20057;-88
2024/03/02 03:10:21;;;;;;;0.00;0.00;;;8.00;99.90;;;;;;4974990;28;20065;-89
2024/03/02 03:12:47;;;;;;;0.00;0.00;;;8.00;99.90;;;;;;4969160;28;20055;-90
2024/03/02 03:15:14;;;;;;;0.20;0.00;;;8.00;99.90;;;;;;4986538;28;20137;-91
2024/03/02 03:17:39;;;;;;;0.88;0.00;;;8.00;99.90;;;;;;5000434;28;20034;-89
2024/03/02 03:20:09;;;;;;;0.32;0.00;;;8.00;99.90;;;;;;4988586;28;20394;-88
2024/03/02 03:22:35;;;;;;;0.10;0.00;;;8.00;99.90;;;;;;4987943;28;20078;-90
2024/03/02 03:25:01;;;;;;;0.55;0.00;;;8.00;99.90;;;;;;4984505;28;20072;-89
2024/03/02 03:27:27;;;;;;;0.00;0.00;;;7.90;99.90;;;;;;4986549;28;20073;-91
2024/03/02 03:29:54;;;;;;;0.00;0.00;;;7.90;99.90;;;;;;5001747;28;20032;-89
2024/03/02 03:32:19;;;;;;;0.52;0.00;;;7.90;99.90;;;;;;4986446;28;20048;-89
2024/03/02 03:34:45;;;;;;;0.40;0.00;;;7.90;99.90;;;;;;4969109;28;20493;-90
2024/03/02 03:37:11;;;;;;;0.10;0.00;;;7.90;99.90;;;;;;5003144;28;20030;-90
2024/03/02 03:39:37;;;;;;;0.00;0.00;;;7.90;99.90;;;;;;4985574;28;20027;-90
2024/03/02 03:42:03;;;;;;;0.20;0.00;;;7.80;99.90;;;;;;4983484;28;20509;-90
2024/03/02 03:44:28;;;;;;;0.00;0.00;;;7.80;99.90;;;;;;5003921;28;20475;-90
2024/03/02 03:46:54;;;;;;;0.10;0.00;;;7.70;99.90;;;;;;4981935;28;20023;-89
2024/03/02 03:49:20;;;;;;;0.08;0.00;;;7.70;99.90;;;;;;4982636;28;20080;-88
2024/03/02 03:51:46;;;;;;;0.20;0.00;;;7.70;99.90;;;;;;4982161;28;20398;-89
2024/03/02 03:54:12;;;;;;;0.00;0.00;;;7.70;99.90;;;;;;4982751;28;20026;-89
2024/03/02 03:56:37;;;;;;;0.05;0.00;;;7.70;99.90;;;;;;4969987;28;20042;-88
2024/03/02 03:59:04;;;;;;;0.15;0.00;;;7.70;99.90;;;;;;4984293;28;20041;-89
2024/03/02 04:01:31;;;;;;;0.20;0.00;;;7.70;99.90;;;;;;4981673;28;20030;-89
2024/03/02 04:03:57;;;;;;;0.08;0.00;;;7.60;99.90;;;;;;4986150;28;20467;-89
2024/03/02 04:06:23;;;;;;;0.45;0.00;;;7.60;99.90;;;;;;5004317;28;20027;-89
2024/03/02 04:08:49;;;;;;;0.10;0.00;;;7.50;99.90;;;;;;4985207;28;20083;-89
2024/03/02 04:11:15;;;;;;;0.00;0.00;;;7.50;99.90;;;;;;5005866;28;20122;-88
2024/03/02 04:13:40;;;;;;;0.00;0.00;;;7.50;99.90;;;;;;4989304;28;20050;-87
2024/03/02 04:16:06;;;;;;;0.00;0.00;;;7.50;99.90;;;;;;4985126;28;20022;-87
2024/03/02 04:18:32;;;;;;;0.15;0.00;;;7.50;99.90;;;;;;4968740;28;20080;-89
2024/03/02 04:20:59;;;;;;;0.03;0.00;;;7.40;99.90;;;;;;5005918;28;20048;-89
2024/03/02 04:23:26;;;;;;;0.17;0.00;;;7.40;99.90;;;;;;4971563;28;20140;-89
2024/03/02 04:25:51;;;;;;;1.13;0.03;;;7.40;99.90;;;;;;4988328;28;20100;-87
2024/03/02 04:28:17;;;;;;;0.17;0.00;;;7.30;99.90;;;;;;4990051;28;20033;-88
2024/03/02 04:30:43;;;;;;;0.20;0.00;;;7.30;99.90;;;;;;4983318;28;20038;-87
2024/03/02 04:33:09;;;;;;;0.20;0.00;;;7.20;99.90;;;;;;4985710;28;20098;-89
2024/03/02 04:35:38;;;;;;;0.10;0.00;;;7.20;99.90;;;;;;5005627;28;20033;-89
2024/03/02 04:38:04;;;;;;;0.10;0.00;;;7.20;99.90;;;;;;4970553;28;20041;-88
2024/03/02 04:40:29;;;;;;;0.10;0.00;;;7.20;99.90;;;;;;4985191;28;20030;-90
2024/03/02 04:42:55;;;;;;;0.52;0.00;;;7.20;99.90;;;;;;4976760;28;20026;-89
2024/03/02 04:45:23;;;;;;;0.22;0.00;;;7.20;99.90;;;;;;4972764;28;20026;-89
2024/03/02 04:47:49;;;;;;;0.75;0.00;;;7.20;99.90;;;;;;4971716;28;20121;-89
2024/03/02 04:50:14;;;;;;;0.30;0.05;;;7.20;99.90;;;;;;4971235;28;20445;-88
2024/03/02 04:52:40;;;;;;;0.00;0.00;;;7.20;99.90;;;;;;4989975;28;20030;-90
2024/03/02 04:57:54;;;;;;;0.75;0.00;;;7.20;99.90;;;;;;5005015;28;20045;-88
2024/03/02 05:00:20;;;;;;;0.00;0.00;;;7.20;99.90;;;;;;4990484;28;20419;-87
2024/03/02 05:02:46;;;;;;;0.28;0.00;;;7.20;99.90;;;;;;5005715;28;20030;-88
2024/03/02 05:05:12;;;;;;;0.50;0.00;;;7.10;99.90;;;;;;4975940;28;20025;-88
2024/03/02 05:07:37;;;;;;;0.10;0.00;;;7.10;99.90;;;;;;5007388;28;20112;-89
2024/03/02 05:10:03;;;;;;;0.10;0.00;;;7.10;99.90;;;;;;4991779;28;20061;-88
2024/03/02 05:12:49;;;;;;;0.00;0.00;;;7.00;99.90;;;;;;4992316;28;20077;-88
2024/03/02 05:15:14;;;;;;;0.10;0.00;;;7.00;99.90;;;;;;5007788;28;20021;-88
2024/03/02 05:17:44;;;;;;;0.20;0.00;;;6.90;99.90;;;;;;4987870;28;20034;-88
2024/03/02 05:20:11;;;;;;;0.17;0.00;;;6.90;99.90;;;;;;4989301;28;20068;-88
2024/03/02 05:22:38;;;;;;;0.00;0.00;;;6.90;99.90;;;;;;4980082;28;20083;-89
2024/03/02 05:25:04;;;;;;;0.10;0.00;;;6.80;99.90;;;;;;4993272;28;20029;-88
2024/03/02 05:27:31;;;;;;;0.00;0.00;;;6.80;99.90;;;;;;5005834;28;20091;-89
2024/03/02 05:29:57;;;;;;;0.00;0.00;;;6.80;99.90;;;;;;4976374;28;20027;-88
2024/03/02 05:32:23;;;;;;;0.20;0.00;;;6.70;99.90;;;;;;4989294;28;20056;-88
2024/03/02 05:34:50;;;;;;;0.10;0.00;;;6.80;99.90;;;;;;4986708;28;20025;-89
2024/03/02 05:37:16;;;;;;;0.10;0.00;;;6.70;99.90;;;;;;4975629;28;20429;-87
2024/03/02 05:39:43;;;;;;;0.20;0.00;;;6.70;99.90;;;;;;4975094;28;20523;-88
2024/03/02 05:42:09;;;;;;;0.00;0.00;;;6.70;99.90;;;;;;4979216;28;20046;-88
2024/03/02 05:44:38;;;;;;;0.28;0.00;;;6.70;99.90;;;;;;4986214;28;20033;-88
2024/03/02 05:47:04;;;;;;;0.20;0.00;;;6.70;99.90;;;;;;4972085;28;20045;-89
2024/03/02 05:49:29;;;;;;;0.10;0.00;;;6.60;99.90;;;;;;4989615;28;20026;-89
2024/03/02 05:51:55;;;;;;;0.10;0.00;;;6.60;99.90;;;;;;4984671;28;20026;-88
2024/03/02 05:54:21;;;;;;;0.00;0.00;;;6.60;99.90;;;;;;5004261;28;20056;-88
2024/03/02 05:56:47;;;;;;;0.00;0.00;;;6.60;99.90;;;;;;5006183;28;20026;-89
2024/03/02 05:59:13;;;;;;;0.00;0.00;;;6.60;99.90;;;;;;4971584;28;20045;-88
2024/03/02 06:01:46;;;;;;;0.00;0.00;;;6.60;99.90;;;;;;4990032;28;20030;-88
2024/03/02 06:04:13;;;;;;;0.28;0.00;;;6.50;99.90;;;;;;5005924;28;20530;-89
2024/03/02 06:06:40;;;;;;;0.00;0.00;;;6.60;99.90;;;;;;4989553;28;20061;-89
2024/03/02 06:09:12;;;;;;;0.10;0.00;;;6.50;99.90;;;;;;5007724;28;20586;-89
2024/03/02 06:11:38;;;;;;;0.10;0.00;;;6.50;99.90;;;;;;4991575;28;20338;-88
2024/03/02 06:14:05;;;;;;;0.30;0.00;;;6.50;99.90;;;;;;4974578;28;20026;-88
2024/03/02 06:16:31;;;;;;;0.00;0.00;;;6.50;99.90;;;;;;4990076;28;20038;-88
2024/03/02 06:18:57;;;;;;;0.03;0.00;;;6.50;99.90;;;;;;4972783;28;20040;-88
2024/03/02 06:21:27;;;;;;;0.00;0.00;;;6.40;99.90;;;;;;4988678;28;20463;-89
2024/03/02 06:23:53;;;;;;;1.05;0.00;;;6.40;99.90;;;;;;5000845;28;20493;-89
2024/03/02 06:26:19;;;;;;;0.40;0.00;;;6.40;99.90;;;;;;4989563;28;20118;-88
2024/03/02 06:28:45;;;;;;;0.17;0.00;;;6.40;99.90;;;;;;4985504;28;20133;-87
2024/03/02 06:31:11;;;;;;;0.50;0.00;;;6.30;99.90;;;;;;4989272;28;20091;-87
2024/03/02 06:33:37;;;;;;;0.15;0.00;;;6.30;99.90;;;;;;4987359;28;20037;-87
2024/03/02 06:36:03;;;;;;;0.10;0.00;;;6.20;99.90;;;;;;4991867;28;20032;-87
2024/03/02 06:38:32;;;;;;;0.20;0.00;;;6.20;99.90;;;;;;4983023;28;20125;-87
2024/03/02 06:40:57;;;;;;;0.08;0.00;;;6.20;99.90;;;;;;4971674;28;20128;-88
2024/03/02 06:43:23;;;;;;;0.10;0.00;;;6.20;99.90;;;;;;5001311;28;20125;-87
2024/03/02 06:45:52;;;;;;;0.20;0.00;;;6.20;99.90;;;;;;5001658;28;20486;-88
2024/03/02 06:48:22;;;;;;;1.17;0.05;;;6.10;99.90;;;;;;4989118;28;20038;-88
2024/03/02 06:50:47;;;;;;;0.17;0.00;;;6.10;99.90;;;;;;4973467;28;20116;-88
2024/03/02 06:53:13;;;;;;;0.43;0.00;;;6.10;99.90;;;;;;4989205;28;20542;-88
2024/03/02 06:55:39;;;;;;;0.93;0.00;;;6.10;99.90;;;;;;4988244;28;20449;-87
2024/03/02 06:58:07;;;;;;;0.13;0.00;;;6.10;99.90;;;;;;4988038;28;20041;-88
2024/03/02 07:00:33;;;;;;;0.00;0.00;;;6.10;99.90;;;;;;4987564;28;20482;-88
2024/03/02 07:02:58;;;;;;;0.10;0.00;;;6.10;99.90;;;;;;5004897;28;20072;-87
2024/03/02 07:05:24;;;;;;;0.10;0.00;;;6.10;99.90;;;;;;4987618;28;20022;-87
2024/03/02 07:07:50;;;;;;;0.20;0.00;;;6.20;99.90;;;;;;4985919;28;20033;-87
2024/03/02 07:10:15;;;;;;;0.40;0.00;;;6.20;99.90;;;;;;4976049;28;20026;-88
2024/03/02 07:12:41;;;;;;;0.30;0.00;;;6.20;99.90;;;;;;5007376;28;20034;-88
2024/03/02 07:17:33;;;;;;;1.55;0.00;;;6.30;99.90;;;;;;5005828;28;22061;-88
2024/03/02 07:19:59;;;;;;;0.20;0.00;;;6.30;99.90;;;;;;5005596;28;20458;-87
2024/03/02 07:22:25;;;;;;;0.00;0.00;;;6.40;99.90;;;;;;4970675;28;20117;-88
2024/03/02 07:24:50;;;;;;;1.02;0.05;;;6.50;99.90;;;;;;4986833;28;20061;-89
2024/03/02 07:27:17;;;;;;;1.13;0.00;;;6.50;99.90;;;;;;5007780;28;20386;-88
2024/03/02 07:29:43;;;;;;;0.13;0.00;;;6.50;99.90;;;;;;5005245;28;20186;-89
2024/03/02 07:32:10;;;;;;;0.85;0.00;;;6.60;99.90;;;;;;4990075;28;20026;-88
2024/03/02 07:34:36;;;;;;;0.20;0.00;;;6.60;99.90;;;;;;4971677;28;20394;-87
2024/03/02 07:37:02;;;;;;;0.80;0.00;;;6.60;99.90;;;;;;4983960;28;20021;-88
2024/03/02 07:39:29;;;;;;;0.20;0.00;;;6.60;99.90;;;;;;4984800;28;20038;-88
2024/03/02 07:41:55;;;;;;;0.30;0.00;;;6.60;99.90;;;;;;4983907;28;20049;-88
2024/03/02 07:44:21;;;;;;;1.08;0.00;;;6.70;99.90;;;;;;4988115;28;20034;-89
2024/03/02 07:46:49;;;;;;;0.40;0.00;;;6.60;99.90;;;;;;4988186;28;20030;-88
2024/03/02 07:49:15;;;;;;;0.08;0.00;;;6.70;99.90;;;;;;5006043;28;20030;-88
2024/03/02 07:51:41;;;;;;;0.10;0.00;;;6.70;99.90;;;;;;4988150;28;20088;-88
2024/03/02 07:54:07;;;;;;;0.30;0.00;;;6.80;99.90;;;;;;4977955;28;20046;-88
2024/03/02 07:56:33;;;;;;;0.65;0.00;;;6.70;99.90;;;;;;4988395;28;20041;-87
2024/03/02 07:59:01;;;;;;;0.75;0.00;;;6.90;99.90;;;;;;4989203;28;20046;-88
2024/03/02 08:01:35;;;;;;;0.10;0.00;;;7.00;99.90;;;;;;4970222;28;20401;-86
2024/03/02 08:04:03;;;;;;;0.43;0.00;;;7.00;99.90;;;;;;4983069;28;20029;-89
2024/03/02 08:06:30;;;;;;;0.52;0.00;;;7.20;99.90;;;;;;4971728;28;20126;-88
2024/03/02 08:09:00;;;;;;;0.20;0.00;;;7.30;99.90;;;;;;4987607;28;20088;-88
2024/03/02 08:11:27;;;;;;;0.13;0.00;;;7.50;99.90;;;;;;4986743;28;20637;-88
2024/03/02 08:13:54;;;;;;;0.20;0.00;;;7.60;99.90;;;;;;4988717;28;20058;-88
2024/03/02 08:16:22;;;;;;;0.40;0.00;;;7.70;99.90;;;;;;4985575;28;20030;-87
2024/03/02 08:18:49;;;;;;;0.40;0.00;;;7.90;99.90;;;;;;4969026;28;20045;-87
2024/03/02 08:21:15;;;;;;;0.82;0.00;;;7.90;99.90;;;;;;4986382;28;20112;-87
2024/03/02 08:23:41;;;;;;;0.75;0.00;;;8.10;99.90;;;;;;4971812;28;20125;-86
2024/03/02 08:26:08;;;;;;;0.63;0.10;;;8.30;99.90;;;;;;4986105;28;20026;-88
2024/03/02 08:28:34;;;;;;;0.10;0.00;;;8.40;99.90;;;;;;4983053;28;20087;-88
2024/03/02 08:31:00;;;;;;;0.40;0.00;;;8.60;99.90;;;;;;5005640;28;20046;-87
2024/03/02 08:33:25;;;;;;;1.13;0.05;;;8.60;99.90;;;;;;4987833;28;20481;-87
2024/03/02 08:35:51;;;;;;;0.20;0.00;;;8.80;99.90;;;;;;4968467;28;20255;-87
2024/03/02 08:38:17;;;;;;;0.55;0.10;;;9.00;99.90;;;;;;5004424;28;20068;-88
2024/03/02 08:40:43;;;;;;;0.17;0.00;;;9.10;99.90;;;;;;4963519;28;20046;-87
2024/03/02 08:43:09;;;;;;;0.88;0.10;;;9.10;99.90;;;;;;5008807;28;20124;-91
2024/03/02 08:45:35;;;;;;;0.55;0.00;;;9.10;99.90;;;;;;4989067;28;20022;-89
2024/03/02 08:48:01;;;;;;;1.50;0.08;;;9.30;99.90;;;;;;4970776;28;20056;-87
2024/03/02 08:50:27;;;;;;;1.42;0.10;;;9.30;99.90;;;;;;4977077;28;20536;-87
2024/03/02 08:52:52;;;;;;;1.30;0.10;;;9.40;99.90;;;;;;4978065;28;20022;-87
2024/03/02 08:55:18;;;;;;;1.30;0.00;;;9.60;99.90;;;;;;4974673;28;20069;-88
2024/03/02 08:57:44;;;;;;;0.88;0.00;;;9.50;99.90;;;;;;4992945;28;20072;-90
2024/03/02 09:00:10;;;;;;;1.02;0.10;;;9.50;99.90;;;;;;5009293;28;20029;-91
2024/03/02 09:02:38;;;;;;;1.13;0.00;;;9.50;99.90;;;;;;4990437;28;20049;-88
2024/03/02 09:05:05;;;;;;;1.52;0.10;;;9.60;99.90;;;;;;4981148;28;20018;-88
2024/03/02 09:07:31;;;;;;;1.33;0.00;;;9.70;99.90;;;;;;4990649;28;20026;-87
2024/03/02 09:09:56;;;;;;;0.43;0.10;;;9.70;99.90;;;;;;4978211;28;20045;-88
2024/03/02 09:12:22;;;;;;;0.38;0.00;;;9.90;99.90;;;;;;4974660;28;20029;-87
2024/03/02 09:14:48;;;;;;;0.32;0.00;;;10.00;99.90;;;;;;4972633;28;20033;-88
2024/03/02 09:17:14;;;;;;;0.40;0.08;;;10.10;99.90;;;;;;4988136;28;20030;-88
2024/03/02 09:19:39;;;;;;;1.80;0.10;;;10.10;99.90;;;;;;4974993;28;20600;-88
2024/03/02 09:22:05;;;;;;;1.50;0.00;;;10.20;99.90;;;;;;4990762;28;20045;-88
2024/03/02 09:24:39;;;;;;;1.20;0.00;;;10.30;99.90;;;;;;4974171;28;20026;-86
2024/03/02 09:27:07;;;;;;;1.42;0.00;;;10.40;99.90;;;;;;4974975;28;20486;-88
2024/03/02 09:29:32;;;;;;;0.50;0.00;;;10.40;99.90;;;;;;4974852;28;20282;-90
2024/03/02 09:31:58;;;;;;;0.40;0.00;;;10.30;99.90;;;;;;4972800;28;20125;-89
2024/03/02 09:34:24;;;;;;;1.10;0.10;;;10.20;99.90;;;;;;4974380;28;20025;-89
2024/03/02 09:36:52;;;;;;;0.63;0.00;;;10.40;99.90;;;;;;4959552;28;20509;-89
2024/03/02 09:39:18;;;;;;;2.97;0.10;;;10.60;99.90;;;;;;4969182;28;20107;-90
2024/03/02 09:41:44;;;;;;;0.82;0.00;;;10.70;99.90;;;;;;5004489;28;20053;-89
2024/03/02 09:44:10;;;;;;;0.30;0.00;;;10.70;99.90;;;;;;4987485;28;20030;-87
2024/03/02 09:46:36;;;;;;;1.25;0.10;;;10.70;99.90;;;;;;4991928;28;20041;-88
2024/03/02 09:49:02;;;;;;;4.10;0.08;;;10.60;99.90;;;;;;4969462;28;20061;-87
2024/03/02 09:51:28;;;;;;;0.50;0.00;;;10.60;99.90;;;;;;4990062;28;20489;-87
2024/03/02 09:53:55;;;;;;;0.98;0.00;;;10.70;99.90;;;;;;4969286;28;20049;-88
2024/03/02 09:56:21;;;;;;;0.52;0.00;;;10.90;99.90;;;;;;4988232;28;20117;-88
2024/03/02 09:58:47;;;;;;;1.42;0.00;;;11.10;99.90;;;;;;4976563;28;20091;-87
2024/03/02 10:01:13;;;;;;;1.15;0.08;;;11.00;99.90;;;;;;4990559;28;20447;-87
2024/03/02 10:03:39;;;;;;;1.10;0.00;;;11.10;99.90;;;;;;4973993;28;20096;-92
2024/03/02 10:06:24;;;;;;;0.30;0.00;;;11.30;99.90;;;;;;5004769;28;20026;-90
2024/03/02 10:08:50;;;;;;;1.85;0.10;;;11.10;99.90;;;;;;4990573;28;20030;-89
2024/03/02 10:11:34;;;;;;;1.20;0.10;;;11.10;99.90;;;;;;4973822;28;20034;-87
2024/03/02 10:14:10;;;;;;;0.75;0.00;;;11.20;99.90;;;;;;4984247;28;20397;-88
2024/03/02 10:16:46;;;;;;;0.50;0.00;;;11.30;99.90;;;;;;4985734;28;20036;-87
2024/03/02 10:19:22;;;;;;;1.63;0.10;;;11.30;99.90;;;;;;5008037;28;20041;-88
2024/03/02 10:21:54;;;;;;;1.95;0.08;;;11.40;99.90;;;;;;5007699;28;20022;-88
2024/03/02 10:24:22;;;;;;;0.77;0.00;;;11.40;99.90;;;;;;5004792;28;20282;-88
2024/03/02 10:26:51;;;;;;;0.45;0.00;;;11.50;99.90;;;;;;4971679;28;20079;-87
2024/03/02 10:29:18;;;;;;;1.35;0.20;;;11.60;99.90;;;;;;4971262;28;20040;-88
2024/03/02 10:31:48;;;;;;;1.15;0.00;;;11.40;99.90;;;;;;5005681;28;20037;-88
2024/03/02 10:34:15;;;;;;;0.60;0.00;;;11.30;99.90;;;;;;4987032;28;20492;-88
2024/03/02 10:36:43;;;;;;;0.40;0.00;;;11.60;99.90;;;;;;4967633;28;20069;-88
2024/03/02 10:39:09;;;;;;;0.43;0.00;;;12.00;99.90;;;;;;4975758;28;20034;-88
2024/03/02 10:41:36;;;;;;;1.48;0.10;;;12.00;99.90;;;;;;4988525;28;20054;-89
2024/03/02 10:44:07;;;;;;;0.77;0.10;;;11.80;99.90;;;;;;5002120;28;20029;-90
2024/03/02 10:46:34;;;;;;;1.52;0.00;;;12.00;99.90;;;;;;4968075;28;20652;-89
2024/03/02 10:49:02;;;;;;;0.50;0.00;;;12.00;99.90;;;;;;4986411;28;20053;-93
2024/03/02 10:51:31;;;;;;;0.93;0.00;;;12.10;99.90;;;;;;4969299;28;20038;-92
2024/03/02 10:54:01;;;;;;;0.93;0.00;;;12.10;99.90;;;;;;4983887;28;20109;-88
2024/03/02 10:56:41;;;;;;;0.38;0.00;;;12.20;99.90;;;;;;4969699;28;20448;-86
2024/03/02 10:59:17;;;;;;;0.63;0.10;;;12.00;99.90;;;;;;5004036;28;20048;-88
2024/03/02 11:01:46;;;;;;;1.17;0.10;;;12.20;99.90;;;;;;4981610;28;20052;-89
2024/03/02 11:04:15;;;;;;;1.30;0.05;;;12.40;99.90;;;;;;4967342;28;20095;-89
2024/03/02 11:06:48;;;;;;;0.47;0.00;;;12.40;99.90;;;;;;4981811;28;20061;-89
2024/03/02 11:09:16;;;;;;;0.45;0.00;;;12.40;99.90;;;;;;4986702;28;20048;-88
2024/03/02 11:11:44;;;;;;;0.43;0.00;;;12.50;99.90;;;;;;4988921;28;20021;-90
2024/03/02 11:14:19;;;;;;;0.63;0.10;;;12.50;99.90;;;;;;4984073;28;20053;-91
2024/03/02 11:16:46;;;;;;;0.52;0.25;;;12.60;99.80;;;;;;4981322;28;20109;-90
2024/03/02 11:19:13;;;;;;;1.15;0.10;;;12.50;74.90;;;;;;4976361;28;20037;-91
2024/03/02 11:21:40;;;;;;;0.85;0.10;;;12.30;42.90;;;;;;4985201;28;20060;-90
2024/03/02 11:24:24;;;;;;;0.95;0.00;;;12.60;53.60;;;;;;4968732;28;20038;-91
2024/03/02 11:26:53;;;;;;;0.47;0.00;;;12.50;27.30;;;;;;4982423;28;20038;-89
2024/03/02 11:29:38;;;;;;;0.30;0.00;;;12.80;48.10;;;;;;4981159;28;20054;-90
2024/03/02 11:32:06;;;;;;;0.68;0.00;;;12.80;28.60;;;;;;4980769;28;20108;-89
2024/03/02 11:34:36;;;;;;;0.75;0.05;;;12.70;17.60;;;;;;5005121;28;20028;-92
2024/03/02 11:37:02;;;;;;;;;;;12.70;3.40;;;;;;4979990;28;20580;-89
2024/03/02 11:39:28;;;;;;;1.25;0.00;;;12.70;1.00;;;;;;4984578;28;19921;-88
2024/03/02 11:41:58;;;;;;;0.43;0.10;;;12.60;1.00;;;;;;4987915;28;20060;-90
2024/03/02 11:44:27;;;;;;;0.40;0.00;;;12.40;1.00;;;;;;4966165;28;20595;-90
2024/03/02 11:47:01;;;;;;;0.40;0.00;;;12.50;1.00;;;;;;4983113;28;20572;-91
2024/03/02 11:49:41;;;;;;;0.60;0.00;;;12.60;1.00;;;;;;5005394;28;20079;-87
2024/03/02 11:52:09;;;;;;;0.50;0.00;;;12.60;1.00;;;;;;4988656;28;20029;-91
2024/03/02 11:54:39;;;;;;;0.10;0.00;;;12.80;1.00;;;;;;4967749;28;20395;-89
2024/03/02 11:57:08;;;;;;;1.00;0.05;;;13.00;1.00;;;;;;4966837;28;20036;-92
2024/03/02 11:59:34;;;;;;;1.23;0.00;;;13.10;1.00;;;;;;4975940;28;20034;-94
2024/03/02 12:02:00;;;;;;;0.20;0.00;;;13.10;1.00;;;;;;4989259;28;20053;-90
2024/03/02 12:04:29;;;;;;;0.50;0.00;;;13.10;1.00;;;;;;4988190;28;20109;-90
2024/03/02 12:07:02;;;;;;;0.20;0.00;;;12.90;1.00;;;;;;4968788;28;20109;-93
2024/03/02 12:09:28;;;;;;;0.32;0.00;;;13.00;1.00;;;;;;4992375;28;20030;-92
2024/03/02 12:12:04;;;;;;;0.50;0.03;;;13.20;1.00;;;;;;4989618;28;20376;-90
2024/03/02 12:14:30;;;;;;;0.60;0.10;;;13.40;1.00;;;;;;5012768;28;20035;-91
2024/03/02 12:16:58;;;;;;;1.27;0.10;;;13.30;1.00;;;;;;5012563;28;20108;-91
2024/03/02 12:19:27;;;;;;;0.50;0.00;;;13.30;1.00;;;;;;4980182;28;20120;-90
2024/03/02 12:21:54;;;;;;;0.73;0.10;;;13.40;1.00;;;;;;5007397;28;20031;-92
2024/03/02 12:24:21;;;;;;;1.15;0.10;;;13.40;1.00;;;;;;4982796;28;20034;-89
2024/03/02 12:26:48;;;;;;;1.77;0.10;;;13.30;1.00;;;;;;4972416;28;20111;-90
2024/03/02 12:29:15;;;;;;;1.02;0.10;;;13.10;1.00;;;;;;4991353;28;20072;-91
2024/03/02 12:31:42;;;;;;;0.50;0.00;;;13.10;1.00;;;;;;4986140;28;20036;-89
2024/03/02 12:34:08;;;;;;;0.60;0.10;;;13.30;1.00;;;;;;5008798;28;20026;-93
2024/03/02 12:36:41;;;;;;;1.90;0.10;;;13.20;1.00;;;;;;4976246;28;20513;-91
2024/03/02 12:39:09;;;;;;;0.28;0.10;;;13.50;1.00;;;;;;4989756;28;20482;-94
2024/03/02 12:41:37;;;;;;;0.43;0.05;;;13.50;1.00;;;;;;5009559;28;20470;-92
2024/03/02 12:44:04;;;;;;;1.25;0.15;;;13.50;1.00;;;;;;5006640;28;20068;-92
2024/03/02 12:46:30;;;;;;;0.90;0.20;;;13.40;1.00;;;;;;4971290;28;20096;-92
2024/03/02 12:48:56;;;;;;;1.05;0.10;;;13.30;1.00;;;;;;4989786;28;20034;-92
2024/03/02 12:51:21;;;;;;;0.40;0.13;;;13.00;1.00;;;;;;4968648;28;20442;-90
2024/03/02 12:53:59;;;;;;;0.50;0.10;;;13.00;1.00;;;;;;4989746;28;20085;-93
2024/03/02 12:56:25;;;;;;;0.50;0.10;;;13.10;1.00;;;;;;4990275;28;20038;-93
2024/03/02 12:58:55;;;;;;;1.50;0.10;;;13.20;1.00;;;;;;4985700;28;20096;-90
2024/03/02 13:01:21;;;;;;;0.80;0.10;;;13.20;1.00;;;;;;5008929;28;20061;-92